createdAt,value
2018-02-17T00:01:41.922Z,48.80
2018-02-17T00:04:08.123Z,59.43
2018-02-17T00:06:35.136Z,49.13
2018-02-17T00:09:01.347Z,46.77
2018-02-17T00:11:27.809Z,54.27
2018-02-17T00:13:54.101Z,43.37
2018-02-17T00:16:20.317Z,49.77
2018-02-17T00:18:46.570Z,45.80
2018-02-17T00:21:12.800Z,47.00
2018-02-17T00:23:39.058Z,41.40
2018-02-17T00:26:06.781Z,44.23
2018-02-17T00:28:33.033Z,46.87
2018-02-17T00:30:59.221Z,49.20
2018-02-17T00:33:26.314Z,43.20
2018-02-17T00:35:52.532Z,43.33
2018-02-17T00:38:18.996Z,51.47
2018-02-17T00:40:46.029Z,57.97
2018-02-17T00:43:12.231Z,51.00
2018-02-17T00:45:38.479Z,47.70
2018-02-17T00:48:04.708Z,44.33
2018-02-17T00:50:30.897Z,46.87
2018-02-17T00:52:58.004Z,48.60
2018-02-17T00:55:24.185Z,51.30
2018-02-17T00:57:51.537Z,42.23
2018-02-17T01:00:18.404Z,49.80
2018-02-17T01:02:44.641Z,47.80
2018-02-17T01:05:10.892Z,39.97
2018-02-17T01:07:37.168Z,49.73
2018-02-17T01:10:03.376Z,34.20
2018-02-17T01:12:29.642Z,50.70
2018-02-17T01:14:55.894Z,40.30
2018-02-17T01:17:22.220Z,41.90
2018-02-17T01:19:48.471Z,46.17
2018-02-17T01:22:14.692Z,49.83
2018-02-17T01:24:41.677Z,51.60
2018-02-17T01:27:07.891Z,45.93
2018-02-17T01:29:34.107Z,53.43
2018-02-17T01:32:01.045Z,40.33
2018-02-17T01:34:34.189Z,44.93
2018-02-17T01:37:00.423Z,52.20
2018-02-17T01:39:26.760Z,46.47
2018-02-17T01:41:53.017Z,51.37
2018-02-17T01:44:19.986Z,45.03
2018-02-17T01:46:46.208Z,48.17
2018-02-17T01:49:12.456Z,48.43
2018-02-17T01:51:38.726Z,49.23
2018-02-17T01:54:04.945Z,46.30
2018-02-17T01:56:31.227Z,42.00
2018-02-17T01:58:57.485Z,56.17
2018-02-17T02:01:23.723Z,44.93
2018-02-17T02:03:50.120Z,53.27
2018-02-17T02:06:16.341Z,43.67
2018-02-17T02:08:42.781Z,39.83
2018-02-17T02:11:09.004Z,48.50
2018-02-17T02:13:35.987Z,46.27
2018-02-17T02:16:02.180Z,45.30
2018-02-17T02:18:28.429Z,41.27
2018-02-17T02:20:54.658Z,41.20
2018-02-17T02:23:20.878Z,51.00
2018-02-17T02:25:47.115Z,48.20
2018-02-17T02:28:13.336Z,51.30
2018-02-17T02:30:39.605Z,46.93
2018-02-17T02:33:06.577Z,50.30
2018-02-17T02:35:33.560Z,47.83
2018-02-17T02:37:59.769Z,50.73
2018-02-17T02:40:28.778Z,47.90
2018-02-17T02:42:55.794Z,58.03
2018-02-17T02:45:22.153Z,44.50
2018-02-17T02:47:49.171Z,58.20
2018-02-17T02:50:15.403Z,46.87
2018-02-17T02:52:41.750Z,47.33
2018-02-17T02:55:07.966Z,43.53
2018-02-17T02:57:34.213Z,49.17
2018-02-17T03:00:00.460Z,35.10
2018-02-17T03:02:27.433Z,45.40
2018-02-17T03:04:53.643Z,43.07
2018-02-17T03:07:20.069Z,48.87
2018-02-17T03:09:47.208Z,46.47
2018-02-17T03:12:13.564Z,46.37
2018-02-17T03:14:39.797Z,44.43
2018-02-17T03:17:05.969Z,46.23
2018-02-17T03:19:32.184Z,45.83
2018-02-17T03:21:58.392Z,49.53
2018-02-17T03:24:25.434Z,46.27
2018-02-17T03:26:51.654Z,46.60
2018-02-17T03:29:19.364Z,44.07
2018-02-17T03:31:45.637Z,43.60
2018-02-17T03:34:13.710Z,49.27
2018-02-17T03:36:40.708Z,40.47
2018-02-17T03:39:06.909Z,47.93
2018-02-17T03:41:33.340Z,38.97
2018-02-17T03:43:59.600Z,45.60
2018-02-17T03:46:25.863Z,52.67
2018-02-17T03:48:52.924Z,48.20
2018-02-17T03:51:19.860Z,42.07
2018-02-17T03:53:46.839Z,53.13
2018-02-17T03:56:13.071Z,44.70
2018-02-17T03:58:39.345Z,41.00
2018-02-17T04:01:05.630Z,50.83
2018-02-17T04:03:32.223Z,53.30
2018-02-17T04:05:58.575Z,43.20
2018-02-17T04:08:24.893Z,53.03
2018-02-17T04:10:51.120Z,56.97
2018-02-17T04:13:18.078Z,51.80
2018-02-17T04:15:44.324Z,46.30
2018-02-17T04:18:10.537Z,43.97
2018-02-17T04:20:36.793Z,56.53
2018-02-17T04:23:03.000Z,48.33
2018-02-17T04:25:29.282Z,48.97
2018-02-17T04:27:56.256Z,46.37
2018-02-17T04:30:22.479Z,49.07
2018-02-17T04:32:49.440Z,57.13
2018-02-17T04:35:15.665Z,50.57
2018-02-17T04:37:41.918Z,52.20
2018-02-17T04:40:11.007Z,59.30
2018-02-17T04:48:55.391Z,43.07
2018-02-17T04:51:37.562Z,54.37
2018-02-17T04:54:15.317Z,48.50
2018-02-17T04:56:47.901Z,42.97
2018-02-17T04:59:25.982Z,43.50
2018-02-17T05:01:55.264Z,45.13
2018-02-17T05:04:23.196Z,49.17
2018-02-17T05:06:55.152Z,47.80
2018-02-17T05:09:22.144Z,48.87
2018-02-17T05:11:48.357Z,58.27
2018-02-17T05:17:19.550Z,51.13
2018-02-17T05:19:49.630Z,41.90
2018-02-17T05:22:17.372Z,41.03
2018-02-17T05:24:46.477Z,43.43
2018-02-17T05:27:15.757Z,42.30
2018-02-17T05:29:51.942Z,41.93
2018-02-17T05:32:18.891Z,52.73
2018-02-17T05:34:49.172Z,53.50
2018-02-17T05:37:15.376Z,70.57
2018-02-17T05:39:42.502Z,51.73
2018-02-17T05:42:13.618Z,56.67
2018-02-17T05:44:40.699Z,41.20
2018-02-17T05:47:07.741Z,49.60
2018-02-17T05:49:34.876Z,52.13
2018-02-17T05:52:01.992Z,50.77
2018-02-17T05:54:28.189Z,48.90
2018-02-17T05:56:54.482Z,60.87
2018-02-17T05:59:21.460Z,61.40
2018-02-17T06:01:47.732Z,54.83
2018-02-17T06:04:14.718Z,47.90
2018-02-17T06:06:40.974Z,47.80
2018-02-17T06:09:07.187Z,50.67
2018-02-17T06:11:33.453Z,49.77
2018-02-17T06:13:59.675Z,57.97
2018-02-17T06:16:25.884Z,54.90
2018-02-17T06:18:52.840Z,52.73
2018-02-17T06:21:19.070Z,68.87
2018-02-17T06:23:45.400Z,46.57
2018-02-17T06:26:11.644Z,52.60
2018-02-17T06:28:37.863Z,50.10
2018-02-17T06:31:04.083Z,52.00
2018-02-17T06:33:30.285Z,53.13
2018-02-17T06:35:57.260Z,46.30
2018-02-17T06:38:23.493Z,49.40
2018-02-17T06:40:49.707Z,57.37
2018-02-17T06:43:15.915Z,57.57
2018-02-17T06:45:42.881Z,49.00
2018-02-17T06:48:09.144Z,51.40
2018-02-17T06:50:35.375Z,47.00
2018-02-17T06:53:02.432Z,42.73
2018-02-17T06:55:28.664Z,49.53
2018-02-17T06:57:54.868Z,46.90
2018-02-17T07:00:21.279Z,56.60
2018-02-17T07:02:47.500Z,45.87
2018-02-17T07:05:13.771Z,48.20
2018-02-17T07:07:39.968Z,52.97
2018-02-17T07:10:06.230Z,51.00
2018-02-17T07:12:32.429Z,50.83
2018-02-17T07:14:58.645Z,48.17
2018-02-17T07:17:24.880Z,51.23
2018-02-17T07:19:51.113Z,51.40
2018-02-17T07:22:17.333Z,52.03
2018-02-17T07:24:43.555Z,42.70
2018-02-17T07:27:09.819Z,48.63
2018-02-17T07:29:36.012Z,48.03
2018-02-17T07:32:02.245Z,44.17
2018-02-17T07:34:28.467Z,55.07
2018-02-17T07:36:54.892Z,59.10
2018-02-17T07:39:21.135Z,48.60
2018-02-17T07:41:47.710Z,49.87
2018-02-17T07:44:14.013Z,53.57
2018-02-17T07:46:40.231Z,45.87
2018-02-17T07:49:06.458Z,44.10
2018-02-17T07:51:32.706Z,51.60
2018-02-17T07:53:58.915Z,46.17
2018-02-17T07:56:26.051Z,46.53
2018-02-17T07:58:52.336Z,56.17
2018-02-17T08:01:19.668Z,42.47
2018-02-17T08:03:47.032Z,54.63
2018-02-17T08:06:14.083Z,49.60
2018-02-17T08:08:40.548Z,50.00
2018-02-17T08:11:07.548Z,55.03
2018-02-17T08:13:33.814Z,54.33
2018-02-17T08:16:00.760Z,45.33
2018-02-17T08:18:27.762Z,47.13
2018-02-17T08:20:55.005Z,48.60
2018-02-17T08:23:21.205Z,48.60
2018-02-17T08:25:47.510Z,52.83
2018-02-17T08:28:14.582Z,57.10
2018-02-17T08:30:40.838Z,37.00
2018-02-17T08:33:07.115Z,58.93
2018-02-17T08:35:34.233Z,46.00
2018-02-17T08:38:00.563Z,39.30
2018-02-17T08:40:27.171Z,46.03
2018-02-17T08:42:54.515Z,42.80
2018-02-17T08:45:20.901Z,37.90
2018-02-17T08:47:47.969Z,37.17
2018-02-17T08:50:15.033Z,47.17
2018-02-17T08:52:41.245Z,51.40
2018-02-17T08:55:08.290Z,44.83
2018-02-17T08:57:35.674Z,43.63
2018-02-17T09:00:02.041Z,47.13
2018-02-17T09:02:29.623Z,44.53
2018-02-17T09:04:55.953Z,49.70
2018-02-17T09:07:22.346Z,47.50
2018-02-17T09:09:48.612Z,47.70
2018-02-17T09:12:14.963Z,45.57
2018-02-17T09:14:41.153Z,49.10
2018-02-17T09:17:08.117Z,49.63
2018-02-17T09:19:34.485Z,41.17
2018-02-17T09:22:01.297Z,47.60
2018-02-17T09:24:27.569Z,49.97
2018-02-17T09:26:54.521Z,49.00
2018-02-17T09:29:20.989Z,41.93
2018-02-17T09:31:48.000Z,51.30
2018-02-17T09:34:14.375Z,47.93
2018-02-17T09:36:40.716Z,43.90
2018-02-17T09:39:07.127Z,38.33
2018-02-17T09:41:57.747Z,45.07
2018-02-17T09:44:29.146Z,44.73
2018-02-17T09:46:55.374Z,49.40
2018-02-17T09:49:21.630Z,42.07
2018-02-17T09:51:48.603Z,51.97
2018-02-17T09:54:14.824Z,47.07
2018-02-17T09:56:41.084Z,42.33
2018-02-17T09:59:07.324Z,51.60
2018-02-17T10:01:33.559Z,47.47
2018-02-17T10:03:59.786Z,45.00
2018-02-17T10:06:26.020Z,44.93
2018-02-17T10:08:53.083Z,33.30
2018-02-17T10:11:20.169Z,52.23
2018-02-17T10:13:46.350Z,53.53
2018-02-17T10:16:13.405Z,42.40
2018-02-17T10:18:40.634Z,58.77
2018-02-17T10:21:07.067Z,47.03
2018-02-17T10:23:33.285Z,49.43
2018-02-17T10:25:59.627Z,43.47
2018-02-17T10:28:26.673Z,46.73
2018-02-17T10:30:52.894Z,51.83
2018-02-17T10:33:19.133Z,42.80
2018-02-17T10:35:45.524Z,41.30
2018-02-17T10:38:11.846Z,52.30
2018-02-17T10:40:38.067Z,45.80
2018-02-17T10:43:04.265Z,40.93
2018-02-17T10:45:31.292Z,40.13
2018-02-17T10:47:59.039Z,38.43
2018-02-17T10:50:25.345Z,42.53
2018-02-17T10:52:51.605Z,47.43
2018-02-17T10:55:17.924Z,46.73
2018-02-17T10:57:44.564Z,36.67
2018-02-17T11:00:10.853Z,33.57
2018-02-17T11:02:37.080Z,40.37
2018-02-17T11:05:03.301Z,34.10
2018-02-17T11:07:29.612Z,39.40
2018-02-17T11:09:56.569Z,41.63
2018-02-17T11:12:23.640Z,43.27
2018-02-17T11:14:49.896Z,47.20
2018-02-17T11:17:16.114Z,38.77
2018-02-17T11:19:42.444Z,44.20
2018-02-17T11:22:08.650Z,43.90
2018-02-17T11:24:34.956Z,51.03
2018-02-17T11:27:02.588Z,42.70
2018-02-17T11:29:29.710Z,44.17
2018-02-17T11:31:56.056Z,39.47
2018-02-17T11:34:22.369Z,44.27
2018-02-17T11:36:49.014Z,46.03
2018-02-17T11:39:15.250Z,44.17
2018-02-17T11:41:41.543Z,37.40
2018-02-17T11:44:08.053Z,42.13
2018-02-17T11:46:34.666Z,39.00
2018-02-17T11:49:02.012Z,40.53
2018-02-17T11:51:28.204Z,37.87
2018-02-17T11:53:54.576Z,35.37
2018-02-17T11:56:21.633Z,31.90
2018-02-17T11:58:49.345Z,32.20
2018-02-17T12:01:15.932Z,32.40
2018-02-17T12:03:43.799Z,30.37
2018-02-17T12:06:10.122Z,33.80
2018-02-17T12:08:37.161Z,37.80
2018-02-17T12:11:04.162Z,40.33
2018-02-17T12:13:30.384Z,35.97
2018-02-17T12:15:56.640Z,35.33
2018-02-17T12:18:22.945Z,33.80
2018-02-17T12:20:49.153Z,33.93
2018-02-17T12:23:15.381Z,23.20
2018-02-17T12:25:41.716Z,35.10
2018-02-17T12:28:08.727Z,28.30
2018-02-17T12:30:34.932Z,34.10
2018-02-17T12:33:01.110Z,34.70
2018-02-17T12:35:28.250Z,29.50
2018-02-17T12:37:54.485Z,24.80
2018-02-17T12:40:21.435Z,25.27
2018-02-17T12:42:47.672Z,41.70
2018-02-17T12:45:13.941Z,28.73
2018-02-17T12:47:40.254Z,43.60
2018-02-17T12:50:06.513Z,28.07
2018-02-17T12:52:34.605Z,30.17
2018-02-17T12:55:01.013Z,29.27
2018-02-17T12:57:27.244Z,22.60
2018-02-17T12:59:53.436Z,23.10
2018-02-17T13:02:19.673Z,36.57
2018-02-17T13:04:46.101Z,29.47
2018-02-17T13:07:12.363Z,30.80
2018-02-17T13:09:58.871Z,31.67
2018-02-17T13:12:27.216Z,38.13
2018-02-17T13:14:53.483Z,36.30
2018-02-17T13:17:19.841Z,28.03
2018-02-17T13:19:46.028Z,25.27
2018-02-17T13:22:12.261Z,31.97
2018-02-17T13:24:39.217Z,28.00
2018-02-17T13:27:06.202Z,31.93
2018-02-17T13:29:32.473Z,26.77
2018-02-17T13:31:59.481Z,33.17
2018-02-17T13:34:25.759Z,25.10
2018-02-17T13:36:52.704Z,30.60
2018-02-17T13:39:19.098Z,27.70
2018-02-17T13:41:46.185Z,32.67
2018-02-17T13:44:13.206Z,38.10
2018-02-17T13:46:39.437Z,49.23
2018-02-17T13:49:05.692Z,27.83
2018-02-17T13:51:31.893Z,23.37
2018-02-17T13:53:58.207Z,29.20
2018-02-17T13:56:24.446Z,31.27
2018-02-17T13:58:50.647Z,25.97
2018-02-17T14:01:16.867Z,28.50
2018-02-17T14:03:43.087Z,24.90
2018-02-17T14:06:09.377Z,33.83
2018-02-17T14:08:35.599Z,23.00
2018-02-17T14:11:02.620Z,27.20
2018-02-17T14:13:28.847Z,16.53
2018-02-17T14:15:55.182Z,23.20
2018-02-17T14:18:21.424Z,22.17
2018-02-17T14:20:47.677Z,24.93
2018-02-17T14:23:14.783Z,18.63
2018-02-17T14:25:41.040Z,24.40
2018-02-17T14:28:07.236Z,25.07
2018-02-17T14:30:33.557Z,28.93
2018-02-17T14:32:59.789Z,23.97
2018-02-17T14:35:26.054Z,19.73
2018-02-17T14:37:52.277Z,23.27
2018-02-17T14:40:18.699Z,19.37
2018-02-17T14:42:45.934Z,16.33
2018-02-17T14:45:12.130Z,12.70
2018-02-17T14:47:38.488Z,19.83
2018-02-17T14:50:05.687Z,25.10
2018-02-17T14:52:32.685Z,22.03
2018-02-17T14:54:58.954Z,21.00
2018-02-17T14:57:25.970Z,17.43
2018-02-17T14:59:52.190Z,25.70
2018-02-17T15:02:18.550Z,20.43
2018-02-17T15:04:45.567Z,18.10
2018-02-17T15:07:11.764Z,13.80
2018-02-17T15:09:38.053Z,17.40
2018-02-17T15:12:04.396Z,29.20
2018-02-17T15:14:31.338Z,23.40
2018-02-17T15:16:59.392Z,17.37
2018-02-17T15:19:25.589Z,11.60
2018-02-17T15:21:51.798Z,21.87
2018-02-17T15:24:18.120Z,19.20
2018-02-17T15:26:44.716Z,22.40
2018-02-17T15:29:11.701Z,23.23
2018-02-17T15:31:37.981Z,16.60
2018-02-17T15:34:05.244Z,16.67
2018-02-17T15:36:31.463Z,10.77
2018-02-17T15:38:57.960Z,20.30
2018-02-17T15:41:24.304Z,23.37
2018-02-17T15:43:50.564Z,13.00
2018-02-17T15:46:16.806Z,18.57
2018-02-17T15:48:43.064Z,23.37
2018-02-17T15:51:09.425Z,22.03
2018-02-17T15:53:35.605Z,14.10
2018-02-17T15:56:02.569Z,17.03
2018-02-17T15:58:28.794Z,23.73
2018-02-17T16:00:55.306Z,23.73
2018-02-17T16:03:22.292Z,17.70
2018-02-17T16:05:48.535Z,17.43
2018-02-17T16:08:14.786Z,17.30
2018-02-17T16:10:41.969Z,21.57
2018-02-17T16:13:08.271Z,22.37
2018-02-17T16:15:34.498Z,17.47
2018-02-17T16:18:01.035Z,24.80
2018-02-17T16:20:27.278Z,20.13
2018-02-17T16:22:54.340Z,27.70
2018-02-17T16:25:20.595Z,24.10
2018-02-17T16:27:46.877Z,29.37
2018-02-17T16:30:13.834Z,23.77
2018-02-17T16:32:40.062Z,20.93
2018-02-17T16:35:06.479Z,26.30
2018-02-17T16:37:34.162Z,23.00
2018-02-17T16:40:00.470Z,16.70
2018-02-17T16:42:26.728Z,17.97
2018-02-17T16:44:52.953Z,21.93
2018-02-17T16:47:19.933Z,24.20
2018-02-17T16:49:46.183Z,22.30
2018-02-17T16:52:12.490Z,16.63
2018-02-17T16:54:38.689Z,34.13
2018-02-17T16:57:04.913Z,26.10
2018-02-17T16:59:31.970Z,23.00
2018-02-17T17:01:58.258Z,18.13
2018-02-17T17:04:24.482Z,22.63
2018-02-17T17:06:51.464Z,28.77
2018-02-17T17:09:19.773Z,21.07
2018-02-17T17:11:46.024Z,25.30
2018-02-17T17:14:13.050Z,32.97
2018-02-17T17:16:39.264Z,19.33
2018-02-17T17:19:12.682Z,24.27
2018-02-17T17:21:38.887Z,23.73
2018-02-17T17:24:05.192Z,31.70
2018-02-17T17:26:31.419Z,31.60
2018-02-17T17:28:58.433Z,25.20
2018-02-17T17:31:25.041Z,25.77
2018-02-17T17:33:51.281Z,38.13
2018-02-17T17:36:17.550Z,25.07
2018-02-17T17:38:44.668Z,23.50
2018-02-17T17:41:11.002Z,30.63
2018-02-17T17:43:37.224Z,29.80
2018-02-17T17:46:03.452Z,27.97
2018-02-17T17:48:29.656Z,30.13
2018-02-17T17:50:55.895Z,35.33
2018-02-17T17:53:22.086Z,30.47
2018-02-17T17:55:48.316Z,36.40
2018-02-17T17:58:14.574Z,30.43
2018-02-17T18:00:40.853Z,31.80
2018-02-17T18:03:07.820Z,30.17
2018-02-17T18:05:34.134Z,24.93
2018-02-17T18:08:00.397Z,21.13
2018-02-17T18:10:26.579Z,27.87
2018-02-17T18:12:53.572Z,29.47
2018-02-17T18:15:19.753Z,31.80
2018-02-17T18:17:46.767Z,41.53
2018-02-17T18:20:12.944Z,22.37
2018-02-17T18:22:39.145Z,29.73
2018-02-17T18:25:06.358Z,29.30
2018-02-17T18:27:32.728Z,23.40
2018-02-17T18:30:00.349Z,31.90
2018-02-17T18:32:26.752Z,34.07
2018-02-17T18:34:53.088Z,34.93
2018-02-17T18:37:19.441Z,47.67
2018-02-17T18:39:45.657Z,44.77
2018-02-17T18:42:12.043Z,39.53
2018-02-17T18:44:39.008Z,37.03
2018-02-17T18:47:05.274Z,29.47
2018-02-17T18:49:33.361Z,31.70
2018-02-17T18:52:00.595Z,32.10
2018-02-17T18:54:27.027Z,31.00
2018-02-17T18:56:53.680Z,30.27
2018-02-17T18:59:19.965Z,33.63
2018-02-17T19:01:46.222Z,27.70
2018-02-17T19:04:12.460Z,40.63
2018-02-17T19:06:38.856Z,29.00
2018-02-17T19:09:05.154Z,35.03
2018-02-17T19:11:32.283Z,39.93
2018-02-17T19:13:59.294Z,35.97
2018-02-17T19:16:25.509Z,28.10
2018-02-17T19:18:51.734Z,30.67
2018-02-17T19:21:18.168Z,38.40
2018-02-17T19:23:44.509Z,38.47
2018-02-17T19:26:11.078Z,28.40
2018-02-17T19:28:37.522Z,27.87
2018-02-17T19:31:04.557Z,32.23
2018-02-17T19:33:31.552Z,35.43
2018-02-17T19:35:57.799Z,32.90
2018-02-17T19:38:24.010Z,29.77
2018-02-17T19:40:50.340Z,34.17
2018-02-17T19:43:18.465Z,41.90
2018-02-17T19:45:45.032Z,28.67
2018-02-17T19:48:11.301Z,26.90
2018-02-17T19:50:45.352Z,26.73
2018-02-17T19:53:11.569Z,37.50
2018-02-17T19:55:37.781Z,28.00
2018-02-17T19:58:04.000Z,33.97
2018-02-17T20:00:30.208Z,24.90
2018-02-17T20:02:57.349Z,30.90
2018-02-17T20:05:23.661Z,25.37
2018-02-17T20:07:49.938Z,29.43
2018-02-17T20:10:17.208Z,29.97
2018-02-17T20:12:43.492Z,28.60
2018-02-17T20:15:09.698Z,20.50
2018-02-17T20:17:35.924Z,36.83
2018-02-17T20:20:02.179Z,26.23
2018-02-17T20:22:28.405Z,32.90
2018-02-17T20:24:54.633Z,22.93
2018-02-17T20:27:20.841Z,29.90
2018-02-17T20:29:47.065Z,20.37
2018-02-17T20:32:13.502Z,36.27
2018-02-17T20:34:40.453Z,25.83
2018-02-17T20:37:06.763Z,24.97
2018-02-17T20:39:33.708Z,24.80
2018-02-17T20:42:00.673Z,24.00
2018-02-17T20:44:26.881Z,29.30
2018-02-17T20:46:53.824Z,22.53
2018-02-17T20:49:20.793Z,26.50
2018-02-17T20:51:47.009Z,25.40
2018-02-17T20:54:13.245Z,26.87
2018-02-17T20:56:39.469Z,32.93
2018-02-17T20:59:05.659Z,21.93
2018-02-17T21:01:31.984Z,24.60
2018-02-17T21:03:58.225Z,28.87
2018-02-17T21:06:24.593Z,30.80
2018-02-17T21:08:50.801Z,28.07
2018-02-17T21:11:17.744Z,33.93
2018-02-17T21:13:44.678Z,23.57
2018-02-17T21:16:10.897Z,25.83
2018-02-17T21:18:37.195Z,28.83
2018-02-17T21:21:03.371Z,26.17
2018-02-17T21:23:29.644Z,26.83
2018-02-17T21:25:55.858Z,31.90
2018-02-17T21:28:22.068Z,20.90
2018-02-17T21:30:48.269Z,22.83
2018-02-17T21:33:15.585Z,31.60
2018-02-17T21:35:41.821Z,24.00
2018-02-17T21:38:08.151Z,36.37
2018-02-17T21:40:34.583Z,20.60
2018-02-17T21:43:00.781Z,29.87
2018-02-17T21:45:27.026Z,31.50
2018-02-17T21:47:53.386Z,28.50
2018-02-17T21:50:19.637Z,24.90
2018-02-17T21:52:46.685Z,18.10
2018-02-17T21:55:12.912Z,29.27
2018-02-17T21:57:39.853Z,25.17
2018-02-17T22:00:06.797Z,24.70
2018-02-17T22:02:33.792Z,23.47
2018-02-17T22:05:00.004Z,27.53
2018-02-17T22:07:26.180Z,25.63
2018-02-17T22:09:52.439Z,24.23
2018-02-17T22:12:18.638Z,23.60
2018-02-17T22:14:44.838Z,16.80
2018-02-17T22:17:11.192Z,17.37
2018-02-17T22:19:37.670Z,20.07
2018-02-17T22:22:04.021Z,30.83
2018-02-17T22:24:31.066Z,15.20
2018-02-17T22:26:57.315Z,23.07
2018-02-17T22:29:23.576Z,19.57
2018-02-17T22:31:49.876Z,27.77
2018-02-17T22:34:16.150Z,21.13
2018-02-17T22:36:42.655Z,23.83
2018-02-17T22:39:09.021Z,18.07
2018-02-17T22:41:35.237Z,21.00
2018-02-17T22:44:01.477Z,21.50
2018-02-17T22:46:27.705Z,20.73
2018-02-17T22:48:53.993Z,24.47
2018-02-17T22:51:20.262Z,18.10
2018-02-17T22:53:46.476Z,24.20
2018-02-17T22:56:12.664Z,26.90
2018-02-17T22:58:38.908Z,15.33
2018-02-17T23:01:05.880Z,28.37
2018-02-17T23:03:32.108Z,28.67
2018-02-17T23:05:58.320Z,23.77
2018-02-17T23:08:24.565Z,24.23
2018-02-17T23:10:50.780Z,33.73
2018-02-17T23:13:17.178Z,23.33
2018-02-17T23:15:43.361Z,20.47
2018-02-17T23:18:09.620Z,21.80
2018-02-17T23:20:35.832Z,27.67
2018-02-17T23:23:02.029Z,19.60
2018-02-17T23:25:28.248Z,19.07
2018-02-17T23:27:54.460Z,23.10
2018-02-17T23:30:21.425Z,19.57
2018-02-17T23:32:47.599Z,22.20
2018-02-17T23:35:13.809Z,24.03
2018-02-17T23:37:40.001Z,19.60
2018-02-17T23:40:06.229Z,25.83
2018-02-17T23:42:33.251Z,23.50
2018-02-17T23:44:59.436Z,23.67
2018-02-17T23:47:25.634Z,23.17
2018-02-17T23:49:51.852Z,19.53
2018-02-17T23:52:18.813Z,17.97
2018-02-17T23:54:44.996Z,20.77
2018-02-17T23:57:11.197Z,22.73
2018-02-17T23:59:37.481Z,28.80
